<?xml version="1.0" encoding="UTF-8" standalone="no" ?>
<gpx xmlns="http://www.topografix.com/GPX/1/1" xmlns:xsi="http://www.w3.org/2001/XMLSchema-instance" xsi:schemaLocation="http://www.topografix.com/GPX/1/1 http://www.topografix.com/GPX/1/1/gpx.xsd" version="1.1" creator="VisuGPX - https://www.visugpx.com">
  <metadata>
    <name>Jarnioux</name>
  </metadata>
  <trk>
    <name><![CDATA[13065549-Jarnoux 19k]]></name>
    <extensions>
      <line xmlns="http://www.topografix.com/GPX/gpx_style/0/2">
        <color>0000FF</color>
        <width>4</width>
      </line>
    </extensions>
    <trkseg>
      <trkpt lat="45.96409" lon="4.63086">
        <ele>293</ele>
        <time>2022-04-15T18:13:28Z</time>
      </trkpt>
      <trkpt lat="45.96429" lon="4.6318">
        <ele>297</ele>
        <time>2022-04-15T18:14:59Z</time>
      </trkpt>
      <trkpt lat="45.96444" lon="4.63229">
        <ele>303</ele>
        <time>2022-04-15T18:15:49Z</time>
      </trkpt>
      <trkpt lat="45.9645" lon="4.63259">
        <ele>305</ele>
        <time>2022-04-15T18:16:18Z</time>
      </trkpt>
      <trkpt lat="45.96452" lon="4.63314">
        <ele>308</ele>
        <time>2022-04-15T18:17:09Z</time>
      </trkpt>
      <trkpt lat="45.96454" lon="4.63335">
        <ele>309</ele>
        <time>2022-04-15T18:17:29Z</time>
      </trkpt>
      <trkpt lat="45.96457" lon="4.63343">
        <ele>310</ele>
        <time>2022-04-15T18:17:37Z</time>
      </trkpt>
      <trkpt lat="45.96461" lon="4.63319">
        <ele>310</ele>
        <time>2022-04-15T18:18:00Z</time>
      </trkpt>
      <trkpt lat="45.9648" lon="4.63242">
        <ele>311</ele>
        <time>2022-04-15T18:19:16Z</time>
      </trkpt>
      <trkpt lat="45.96485" lon="4.6321">
        <ele>312</ele>
        <time>2022-04-15T18:19:46Z</time>
      </trkpt>
      <trkpt lat="45.96487" lon="4.63194">
        <ele>312</ele>
        <time>2022-04-15T18:20:01Z</time>
      </trkpt>
      <trkpt lat="45.96487" lon="4.63145">
        <ele>310</ele>
        <time>2022-04-15T18:20:47Z</time>
      </trkpt>
      <trkpt lat="45.9649" lon="4.63103">
        <ele>310</ele>
        <time>2022-04-15T18:21:26Z</time>
      </trkpt>
      <trkpt lat="45.96506" lon="4.63063">
        <ele>312</ele>
        <time>2022-04-15T18:22:09Z</time>
      </trkpt>
      <trkpt lat="45.96523" lon="4.63027">
        <ele>314</ele>
        <time>2022-04-15T18:22:49Z</time>
      </trkpt>
      <trkpt lat="45.96546" lon="4.62991">
        <ele>318</ele>
        <time>2022-04-15T18:23:34Z</time>
      </trkpt>
      <trkpt lat="45.96571" lon="4.62914">
        <ele>319</ele>
        <time>2022-04-15T18:24:53Z</time>
      </trkpt>
      <trkpt lat="45.96577" lon="4.62894">
        <ele>319</ele>
        <time>2022-04-15T18:25:13Z</time>
      </trkpt>
      <trkpt lat="45.96586" lon="4.6284">
        <ele>320</ele>
        <time>2022-04-15T18:26:05Z</time>
      </trkpt>
      <trkpt lat="45.96608" lon="4.62718">
        <ele>322</ele>
        <time>2022-04-15T18:28:02Z</time>
      </trkpt>
      <trkpt lat="45.96631" lon="4.62609">
        <ele>323</ele>
        <time>2022-04-15T18:29:47Z</time>
      </trkpt>
      <trkpt lat="45.96653" lon="4.62544">
        <ele>325</ele>
        <time>2022-04-15T18:30:54Z</time>
      </trkpt>
      <trkpt lat="45.9667" lon="4.62495">
        <ele>325</ele>
        <time>2022-04-15T18:31:45Z</time>
      </trkpt>
      <trkpt lat="45.96676" lon="4.62482">
        <ele>326</ele>
        <time>2022-04-15T18:32:00Z</time>
      </trkpt>
      <trkpt lat="45.96696" lon="4.62459">
        <ele>330</ele>
        <time>2022-04-15T18:32:34Z</time>
      </trkpt>
      <trkpt lat="45.96704" lon="4.62444">
        <ele>332</ele>
        <time>2022-04-15T18:32:51Z</time>
      </trkpt>
      <trkpt lat="45.9671" lon="4.62413">
        <ele>333</ele>
        <time>2022-04-15T18:33:21Z</time>
      </trkpt>
      <trkpt lat="45.96723" lon="4.62326">
        <ele>334</ele>
        <time>2022-04-15T18:34:44Z</time>
      </trkpt>
      <trkpt lat="45.96761" lon="4.62199">
        <ele>336</ele>
        <time>2022-04-15T18:36:52Z</time>
      </trkpt>
      <trkpt lat="45.96781" lon="4.62152">
        <ele>340</ele>
        <time>2022-04-15T18:37:43Z</time>
      </trkpt>
      <trkpt lat="45.96816" lon="4.62084">
        <ele>343</ele>
        <time>2022-04-15T18:39:02Z</time>
      </trkpt>
      <trkpt lat="45.96842" lon="4.62045">
        <ele>346</ele>
        <time>2022-04-15T18:39:52Z</time>
      </trkpt>
      <trkpt lat="45.9686" lon="4.62008">
        <ele>348</ele>
        <time>2022-04-15T18:40:34Z</time>
      </trkpt>
      <trkpt lat="45.96888" lon="4.61936">
        <ele>351</ele>
        <time>2022-04-15T18:41:50Z</time>
      </trkpt>
      <trkpt lat="45.96907" lon="4.61871">
        <ele>351</ele>
        <time>2022-04-15T18:42:56Z</time>
      </trkpt>
      <trkpt lat="45.96939" lon="4.61771">
        <ele>354</ele>
        <time>2022-04-15T18:44:38Z</time>
      </trkpt>
      <trkpt lat="45.96981" lon="4.61638">
        <ele>357</ele>
        <time>2022-04-15T18:46:53Z</time>
      </trkpt>
      <trkpt lat="45.9702" lon="4.61544">
        <ele>360</ele>
        <time>2022-04-15T18:48:35Z</time>
      </trkpt>
      <trkpt lat="45.97037" lon="4.61488">
        <ele>364</ele>
        <time>2022-04-15T18:49:31Z</time>
      </trkpt>
      <trkpt lat="45.97077" lon="4.6133">
        <ele>367</ele>
        <time>2022-04-15T18:52:07Z</time>
      </trkpt>
      <trkpt lat="45.97095" lon="4.6122">
        <ele>367</ele>
        <time>2022-04-15T18:53:52Z</time>
      </trkpt>
      <trkpt lat="45.97102" lon="4.61143">
        <ele>371</ele>
        <time>2022-04-15T18:55:04Z</time>
      </trkpt>
      <trkpt lat="45.97093" lon="4.6111">
        <ele>370</ele>
        <time>2022-04-15T18:55:37Z</time>
      </trkpt>
      <trkpt lat="45.97077" lon="4.61083">
        <ele>369</ele>
        <time>2022-04-15T18:56:10Z</time>
      </trkpt>
      <trkpt lat="45.97061" lon="4.61069">
        <ele>371</ele>
        <time>2022-04-15T18:56:35Z</time>
      </trkpt>
      <trkpt lat="45.97045" lon="4.61062">
        <ele>372</ele>
        <time>2022-04-15T18:56:57Z</time>
      </trkpt>
      <trkpt lat="45.97052" lon="4.61">
        <ele>377</ele>
        <time>2022-04-15T18:57:56Z</time>
      </trkpt>
      <trkpt lat="45.97062" lon="4.60935">
        <ele>381</ele>
        <time>2022-04-15T18:58:57Z</time>
      </trkpt>
      <trkpt lat="45.97074" lon="4.60886">
        <ele>382</ele>
        <time>2022-04-15T18:59:46Z</time>
      </trkpt>
      <trkpt lat="45.97077" lon="4.6088">
        <ele>382</ele>
        <time>2022-04-15T18:59:52Z</time>
      </trkpt>
      <trkpt lat="45.97074" lon="4.60886">
        <ele>382</ele>
        <time>2022-04-15T18:59:59Z</time>
      </trkpt>
      <trkpt lat="45.97122" lon="4.60942">
        <ele>390</ele>
        <time>2022-04-15T19:01:22Z</time>
      </trkpt>
      <trkpt lat="45.97164" lon="4.61015">
        <ele>397</ele>
        <time>2022-04-15T19:02:50Z</time>
      </trkpt>
      <trkpt lat="45.97167" lon="4.61021">
        <ele>398</ele>
        <time>2022-04-15T19:02:56Z</time>
      </trkpt>
      <trkpt lat="45.97172" lon="4.60992">
        <ele>402</ele>
        <time>2022-04-15T19:03:24Z</time>
      </trkpt>
      <trkpt lat="45.97173" lon="4.60965">
        <ele>404</ele>
        <time>2022-04-15T19:03:49Z</time>
      </trkpt>
      <trkpt lat="45.97179" lon="4.6093">
        <ele>409</ele>
        <time>2022-04-15T19:04:23Z</time>
      </trkpt>
      <trkpt lat="45.97187" lon="4.60907">
        <ele>412</ele>
        <time>2022-04-15T19:04:47Z</time>
      </trkpt>
      <trkpt lat="45.97194" lon="4.60873">
        <ele>411</ele>
        <time>2022-04-15T19:05:19Z</time>
      </trkpt>
      <trkpt lat="45.97201" lon="4.60851">
        <ele>411</ele>
        <time>2022-04-15T19:05:42Z</time>
      </trkpt>
      <trkpt lat="45.97213" lon="4.60837">
        <ele>412</ele>
        <time>2022-04-15T19:06:03Z</time>
      </trkpt>
      <trkpt lat="45.97272" lon="4.60774">
        <ele>412</ele>
        <time>2022-04-15T19:07:41Z</time>
      </trkpt>
      <trkpt lat="45.9729" lon="4.60758">
        <ele>411</ele>
        <time>2022-04-15T19:08:09Z</time>
      </trkpt>
      <trkpt lat="45.97343" lon="4.60665">
        <ele>403</ele>
        <time>2022-04-15T19:10:00Z</time>
      </trkpt>
      <trkpt lat="45.97351" lon="4.60655">
        <ele>403</ele>
        <time>2022-04-15T19:10:14Z</time>
      </trkpt>
      <trkpt lat="45.97363" lon="4.60644">
        <ele>403</ele>
        <time>2022-04-15T19:10:33Z</time>
      </trkpt>
      <trkpt lat="45.97424" lon="4.60601">
        <ele>402</ele>
        <time>2022-04-15T19:12:04Z</time>
      </trkpt>
      <trkpt lat="45.97443" lon="4.60622">
        <ele>403</ele>
        <time>2022-04-15T19:12:36Z</time>
      </trkpt>
      <trkpt lat="45.97479" lon="4.60667">
        <ele>403</ele>
        <time>2022-04-15T19:13:40Z</time>
      </trkpt>
      <trkpt lat="45.975" lon="4.60698">
        <ele>400</ele>
        <time>2022-04-15T19:14:20Z</time>
      </trkpt>
      <trkpt lat="45.97541" lon="4.60615">
        <ele>402</ele>
        <time>2022-04-15T19:15:54Z</time>
      </trkpt>
      <trkpt lat="45.97541" lon="4.60601">
        <ele>402</ele>
        <time>2022-04-15T19:16:07Z</time>
      </trkpt>
      <trkpt lat="45.97549" lon="4.60529">
        <ele>406</ele>
        <time>2022-04-15T19:17:15Z</time>
      </trkpt>
      <trkpt lat="45.9755" lon="4.60355">
        <ele>422</ele>
        <time>2022-04-15T19:19:56Z</time>
      </trkpt>
      <trkpt lat="45.97535" lon="4.60267">
        <ele>432</ele>
        <time>2022-04-15T19:21:20Z</time>
      </trkpt>
      <trkpt lat="45.97494" lon="4.6019">
        <ele>446</ele>
        <time>2022-04-15T19:22:50Z</time>
      </trkpt>
      <trkpt lat="45.97486" lon="4.60163">
        <ele>451</ele>
        <time>2022-04-15T19:23:17Z</time>
      </trkpt>
      <trkpt lat="45.9749" lon="4.60145">
        <ele>452</ele>
        <time>2022-04-15T19:23:35Z</time>
      </trkpt>
      <trkpt lat="45.97513" lon="4.601">
        <ele>453</ele>
        <time>2022-04-15T19:24:27Z</time>
      </trkpt>
      <trkpt lat="45.97555" lon="4.59935">
        <ele>462</ele>
        <time>2022-04-15T19:27:10Z</time>
      </trkpt>
      <trkpt lat="45.97564" lon="4.5989">
        <ele>464</ele>
        <time>2022-04-15T19:27:53Z</time>
      </trkpt>
      <trkpt lat="45.97573" lon="4.59803">
        <ele>470</ele>
        <time>2022-04-15T19:29:15Z</time>
      </trkpt>
      <trkpt lat="45.9758" lon="4.59778">
        <ele>470</ele>
        <time>2022-04-15T19:29:40Z</time>
      </trkpt>
      <trkpt lat="45.9761" lon="4.59713">
        <ele>472</ele>
        <time>2022-04-15T19:30:52Z</time>
      </trkpt>
      <trkpt lat="45.97618" lon="4.59685">
        <ele>474</ele>
        <time>2022-04-15T19:31:20Z</time>
      </trkpt>
      <trkpt lat="45.97625" lon="4.59618">
        <ele>482</ele>
        <time>2022-04-15T19:32:23Z</time>
      </trkpt>
      <trkpt lat="45.97652" lon="4.59558">
        <ele>484</ele>
        <time>2022-04-15T19:33:29Z</time>
      </trkpt>
      <trkpt lat="45.97682" lon="4.59514">
        <ele>486</ele>
        <time>2022-04-15T19:34:27Z</time>
      </trkpt>
      <trkpt lat="45.97686" lon="4.59497">
        <ele>488</ele>
        <time>2022-04-15T19:34:43Z</time>
      </trkpt>
      <trkpt lat="45.97688" lon="4.59449">
        <ele>491</ele>
        <time>2022-04-15T19:35:28Z</time>
      </trkpt>
      <trkpt lat="45.97707" lon="4.59381">
        <ele>493</ele>
        <time>2022-04-15T19:36:36Z</time>
      </trkpt>
      <trkpt lat="45.97717" lon="4.59322">
        <ele>495</ele>
        <time>2022-04-15T19:37:32Z</time>
      </trkpt>
      <trkpt lat="45.97704" lon="4.59334">
        <ele>495</ele>
        <time>2022-04-15T19:37:53Z</time>
      </trkpt>
      <trkpt lat="45.97677" lon="4.59332">
        <ele>497</ele>
        <time>2022-04-15T19:38:29Z</time>
      </trkpt>
      <trkpt lat="45.9765" lon="4.5932">
        <ele>500</ele>
        <time>2022-04-15T19:39:06Z</time>
      </trkpt>
      <trkpt lat="45.97636" lon="4.59306">
        <ele>502</ele>
        <time>2022-04-15T19:39:29Z</time>
      </trkpt>
      <trkpt lat="45.97615" lon="4.59255">
        <ele>506</ele>
        <time>2022-04-15T19:40:24Z</time>
      </trkpt>
      <trkpt lat="45.97599" lon="4.59234">
        <ele>510</ele>
        <time>2022-04-15T19:40:53Z</time>
      </trkpt>
      <trkpt lat="45.97545" lon="4.59198">
        <ele>517</ele>
        <time>2022-04-15T19:42:12Z</time>
      </trkpt>
      <trkpt lat="45.97524" lon="4.59188">
        <ele>520</ele>
        <time>2022-04-15T19:42:42Z</time>
      </trkpt>
      <trkpt lat="45.97494" lon="4.5915">
        <ele>525</ele>
        <time>2022-04-15T19:43:35Z</time>
      </trkpt>
      <trkpt lat="45.97395" lon="4.59037">
        <ele>544</ele>
        <time>2022-04-15T19:46:24Z</time>
      </trkpt>
      <trkpt lat="45.97356" lon="4.58981">
        <ele>550</ele>
        <time>2022-04-15T19:47:37Z</time>
      </trkpt>
      <trkpt lat="45.97318" lon="4.58939">
        <ele>556</ele>
        <time>2022-04-15T19:48:41Z</time>
      </trkpt>
      <trkpt lat="45.97279" lon="4.58882">
        <ele>562</ele>
        <time>2022-04-15T19:49:56Z</time>
      </trkpt>
      <trkpt lat="45.97252" lon="4.58851">
        <ele>565</ele>
        <time>2022-04-15T19:50:42Z</time>
      </trkpt>
      <trkpt lat="45.97221" lon="4.58827">
        <ele>567</ele>
        <time>2022-04-15T19:51:29Z</time>
      </trkpt>
      <trkpt lat="45.97175" lon="4.58768">
        <ele>572</ele>
        <time>2022-04-15T19:52:51Z</time>
      </trkpt>
      <trkpt lat="45.97141" lon="4.58743">
        <ele>576</ele>
        <time>2022-04-15T19:53:42Z</time>
      </trkpt>
      <trkpt lat="45.971" lon="4.58732">
        <ele>582</ele>
        <time>2022-04-15T19:54:38Z</time>
      </trkpt>
      <trkpt lat="45.97031" lon="4.58707">
        <ele>588</ele>
        <time>2022-04-15T19:56:12Z</time>
      </trkpt>
      <trkpt lat="45.96996" lon="4.5869">
        <ele>590</ele>
        <time>2022-04-15T19:57:02Z</time>
      </trkpt>
      <trkpt lat="45.96959" lon="4.58676">
        <ele>590</ele>
        <time>2022-04-15T19:57:53Z</time>
      </trkpt>
      <trkpt lat="45.9694" lon="4.58676">
        <ele>590</ele>
        <time>2022-04-15T19:58:18Z</time>
      </trkpt>
      <trkpt lat="45.96629" lon="4.58867">
        <ele>600</ele>
        <time>2022-04-15T20:05:49Z</time>
      </trkpt>
      <trkpt lat="45.96591" lon="4.58876">
        <ele>602</ele>
        <time>2022-04-15T20:06:41Z</time>
      </trkpt>
      <trkpt lat="45.96507" lon="4.58875">
        <ele>606</ele>
        <time>2022-04-15T20:08:33Z</time>
      </trkpt>
      <trkpt lat="45.96447" lon="4.5887">
        <ele>606</ele>
        <time>2022-04-15T20:09:53Z</time>
      </trkpt>
      <trkpt lat="45.96406" lon="4.58875">
        <ele>606</ele>
        <time>2022-04-15T20:10:48Z</time>
      </trkpt>
      <trkpt lat="45.96355" lon="4.58879">
        <ele>605</ele>
        <time>2022-04-15T20:11:56Z</time>
      </trkpt>
      <trkpt lat="45.96319" lon="4.5889">
        <ele>606</ele>
        <time>2022-04-15T20:12:45Z</time>
      </trkpt>
      <trkpt lat="45.96269" lon="4.58912">
        <ele>607</ele>
        <time>2022-04-15T20:13:55Z</time>
      </trkpt>
      <trkpt lat="45.9622" lon="4.58941">
        <ele>606</ele>
        <time>2022-04-15T20:15:06Z</time>
      </trkpt>
      <trkpt lat="45.96185" lon="4.58953">
        <ele>605</ele>
        <time>2022-04-15T20:15:54Z</time>
      </trkpt>
      <trkpt lat="45.9615" lon="4.58962">
        <ele>605</ele>
        <time>2022-04-15T20:16:41Z</time>
      </trkpt>
      <trkpt lat="45.9615" lon="4.58968">
        <ele>606</ele>
        <time>2022-04-15T20:16:47Z</time>
      </trkpt>
      <trkpt lat="45.9615" lon="4.58962">
        <ele>605</ele>
        <time>2022-04-15T20:16:52Z</time>
      </trkpt>
      <trkpt lat="45.9611" lon="4.58957">
        <ele>604</ele>
        <time>2022-04-15T20:17:46Z</time>
      </trkpt>
      <trkpt lat="45.96089" lon="4.58949">
        <ele>603</ele>
        <time>2022-04-15T20:18:15Z</time>
      </trkpt>
      <trkpt lat="45.96039" lon="4.58916">
        <ele>599</ele>
        <time>2022-04-15T20:19:28Z</time>
      </trkpt>
      <trkpt lat="45.9602" lon="4.58905">
        <ele>597</ele>
        <time>2022-04-15T20:19:56Z</time>
      </trkpt>
      <trkpt lat="45.96001" lon="4.58903">
        <ele>598</ele>
        <time>2022-04-15T20:20:21Z</time>
      </trkpt>
      <trkpt lat="45.95981" lon="4.58906">
        <ele>595</ele>
        <time>2022-04-15T20:20:48Z</time>
      </trkpt>
      <trkpt lat="45.95901" lon="4.58945">
        <ele>588</ele>
        <time>2022-04-15T20:22:41Z</time>
      </trkpt>
      <trkpt lat="45.95876" lon="4.58965">
        <ele>587</ele>
        <time>2022-04-15T20:23:19Z</time>
      </trkpt>
      <trkpt lat="45.95845" lon="4.58984">
        <ele>585</ele>
        <time>2022-04-15T20:24:04Z</time>
      </trkpt>
      <trkpt lat="45.9581" lon="4.59">
        <ele>584</ele>
        <time>2022-04-15T20:24:53Z</time>
      </trkpt>
      <trkpt lat="45.95789" lon="4.59007">
        <ele>583</ele>
        <time>2022-04-15T20:25:22Z</time>
      </trkpt>
      <trkpt lat="45.95725" lon="4.59018">
        <ele>579</ele>
        <time>2022-04-15T20:26:48Z</time>
      </trkpt>
      <trkpt lat="45.95678" lon="4.59038">
        <ele>579</ele>
        <time>2022-04-15T20:27:53Z</time>
      </trkpt>
      <trkpt lat="45.95633" lon="4.5905">
        <ele>578</ele>
        <time>2022-04-15T20:28:54Z</time>
      </trkpt>
      <trkpt lat="45.95597" lon="4.59053">
        <ele>577</ele>
        <time>2022-04-15T20:29:42Z</time>
      </trkpt>
      <trkpt lat="45.95537" lon="4.59048">
        <ele>575</ele>
        <time>2022-04-15T20:31:02Z</time>
      </trkpt>
      <trkpt lat="45.95504" lon="4.59034">
        <ele>572</ele>
        <time>2022-04-15T20:31:48Z</time>
      </trkpt>
      <trkpt lat="45.95477" lon="4.59015">
        <ele>568</ele>
        <time>2022-04-15T20:32:28Z</time>
      </trkpt>
      <trkpt lat="45.95436" lon="4.58977">
        <ele>561</ele>
        <time>2022-04-15T20:33:34Z</time>
      </trkpt>
      <trkpt lat="45.95376" lon="4.58942">
        <ele>557</ele>
        <time>2022-04-15T20:35:00Z</time>
      </trkpt>
      <trkpt lat="45.9536" lon="4.58925">
        <ele>554</ele>
        <time>2022-04-15T20:35:26Z</time>
      </trkpt>
      <trkpt lat="45.95283" lon="4.58761">
        <ele>546</ele>
        <time>2022-04-15T20:38:30Z</time>
      </trkpt>
      <trkpt lat="45.95241" lon="4.5868">
        <ele>547</ele>
        <time>2022-04-15T20:40:04Z</time>
      </trkpt>
      <trkpt lat="45.95201" lon="4.58595">
        <ele>545</ele>
        <time>2022-04-15T20:41:39Z</time>
      </trkpt>
      <trkpt lat="45.9518" lon="4.58555">
        <ele>544</ele>
        <time>2022-04-15T20:42:26Z</time>
      </trkpt>
      <trkpt lat="45.95133" lon="4.5851">
        <ele>543</ele>
        <time>2022-04-15T20:43:41Z</time>
      </trkpt>
      <trkpt lat="45.95104" lon="4.58475">
        <ele>540</ele>
        <time>2022-04-15T20:44:31Z</time>
      </trkpt>
      <trkpt lat="45.9503" lon="4.58449">
        <ele>535</ele>
        <time>2022-04-15T20:46:13Z</time>
      </trkpt>
      <trkpt lat="45.94972" lon="4.58408">
        <ele>530</ele>
        <time>2022-04-15T20:47:39Z</time>
      </trkpt>
      <trkpt lat="45.94929" lon="4.58405">
        <ele>528</ele>
        <time>2022-04-15T20:48:37Z</time>
      </trkpt>
      <trkpt lat="45.9491" lon="4.58394">
        <ele>527</ele>
        <time>2022-04-15T20:49:04Z</time>
      </trkpt>
      <trkpt lat="45.94913" lon="4.58442">
        <ele>526</ele>
        <time>2022-04-15T20:49:49Z</time>
      </trkpt>
      <trkpt lat="45.94916" lon="4.58454">
        <ele>526</ele>
        <time>2022-04-15T20:50:01Z</time>
      </trkpt>
      <trkpt lat="45.94912" lon="4.58474">
        <ele>526</ele>
        <time>2022-04-15T20:50:20Z</time>
      </trkpt>
      <trkpt lat="45.94919" lon="4.58501">
        <ele>526</ele>
        <time>2022-04-15T20:50:47Z</time>
      </trkpt>
      <trkpt lat="45.94947" lon="4.58591">
        <ele>522</ele>
        <time>2022-04-15T20:52:18Z</time>
      </trkpt>
      <trkpt lat="45.94952" lon="4.58619">
        <ele>522</ele>
        <time>2022-04-15T20:52:45Z</time>
      </trkpt>
      <trkpt lat="45.94954" lon="4.58649">
        <ele>522</ele>
        <time>2022-04-15T20:53:13Z</time>
      </trkpt>
      <trkpt lat="45.94953" lon="4.58667">
        <ele>521</ele>
        <time>2022-04-15T20:53:30Z</time>
      </trkpt>
      <trkpt lat="45.94949" lon="4.5869">
        <ele>522</ele>
        <time>2022-04-15T20:53:52Z</time>
      </trkpt>
      <trkpt lat="45.94937" lon="4.58722">
        <ele>522</ele>
        <time>2022-04-15T20:54:25Z</time>
      </trkpt>
      <trkpt lat="45.94897" lon="4.58775">
        <ele>521</ele>
        <time>2022-04-15T20:55:38Z</time>
      </trkpt>
      <trkpt lat="45.94861" lon="4.58836">
        <ele>524</ele>
        <time>2022-04-15T20:56:52Z</time>
      </trkpt>
      <trkpt lat="45.94843" lon="4.58886">
        <ele>528</ele>
        <time>2022-04-15T20:57:45Z</time>
      </trkpt>
      <trkpt lat="45.94835" lon="4.58914">
        <ele>531</ele>
        <time>2022-04-15T20:58:13Z</time>
      </trkpt>
      <trkpt lat="45.94849" lon="4.58935">
        <ele>532</ele>
        <time>2022-04-15T20:58:40Z</time>
      </trkpt>
      <trkpt lat="45.94849" lon="4.58959">
        <ele>533</ele>
        <time>2022-04-15T20:59:02Z</time>
      </trkpt>
      <trkpt lat="45.94852" lon="4.58975">
        <ele>534</ele>
        <time>2022-04-15T20:59:17Z</time>
      </trkpt>
      <trkpt lat="45.94894" lon="4.59059">
        <ele>541</ele>
        <time>2022-04-15T21:00:53Z</time>
      </trkpt>
      <trkpt lat="45.94892" lon="4.59084">
        <ele>543</ele>
        <time>2022-04-15T21:01:17Z</time>
      </trkpt>
      <trkpt lat="45.94889" lon="4.59105">
        <ele>545</ele>
        <time>2022-04-15T21:01:36Z</time>
      </trkpt>
      <trkpt lat="45.9489" lon="4.59121">
        <ele>547</ele>
        <time>2022-04-15T21:01:51Z</time>
      </trkpt>
      <trkpt lat="45.94893" lon="4.59145">
        <ele>549</ele>
        <time>2022-04-15T21:02:14Z</time>
      </trkpt>
      <trkpt lat="45.949" lon="4.59177">
        <ele>554</ele>
        <time>2022-04-15T21:02:45Z</time>
      </trkpt>
      <trkpt lat="45.94898" lon="4.59209">
        <ele>556</ele>
        <time>2022-04-15T21:03:15Z</time>
      </trkpt>
      <trkpt lat="45.94892" lon="4.59253">
        <ele>559</ele>
        <time>2022-04-15T21:03:57Z</time>
      </trkpt>
      <trkpt lat="45.94892" lon="4.59272">
        <ele>560</ele>
        <time>2022-04-15T21:04:14Z</time>
      </trkpt>
      <trkpt lat="45.94901" lon="4.59303">
        <ele>562</ele>
        <time>2022-04-15T21:04:45Z</time>
      </trkpt>
      <trkpt lat="45.9493" lon="4.59364">
        <ele>564</ele>
        <time>2022-04-15T21:05:54Z</time>
      </trkpt>
      <trkpt lat="45.94941" lon="4.59363">
        <ele>565</ele>
        <time>2022-04-15T21:06:09Z</time>
      </trkpt>
      <trkpt lat="45.94966" lon="4.59407">
        <ele>565</ele>
        <time>2022-04-15T21:07:01Z</time>
      </trkpt>
      <trkpt lat="45.94991" lon="4.59479">
        <ele>561</ele>
        <time>2022-04-15T21:08:16Z</time>
      </trkpt>
      <trkpt lat="45.94995" lon="4.595">
        <ele>560</ele>
        <time>2022-04-15T21:08:36Z</time>
      </trkpt>
      <trkpt lat="45.94996" lon="4.59586">
        <ele>555</ele>
        <time>2022-04-15T21:09:56Z</time>
      </trkpt>
      <trkpt lat="45.94994" lon="4.59615">
        <ele>554</ele>
        <time>2022-04-15T21:10:23Z</time>
      </trkpt>
      <trkpt lat="45.95" lon="4.59698">
        <ele>554</ele>
        <time>2022-04-15T21:11:40Z</time>
      </trkpt>
      <trkpt lat="45.94999" lon="4.59757">
        <ele>553</ele>
        <time>2022-04-15T21:12:35Z</time>
      </trkpt>
      <trkpt lat="45.95001" lon="4.5977">
        <ele>553</ele>
        <time>2022-04-15T21:12:48Z</time>
      </trkpt>
      <trkpt lat="45.95005" lon="4.59781">
        <ele>554</ele>
        <time>2022-04-15T21:12:59Z</time>
      </trkpt>
      <trkpt lat="45.9501" lon="4.59803">
        <ele>555</ele>
        <time>2022-04-15T21:13:21Z</time>
      </trkpt>
      <trkpt lat="45.95012" lon="4.59921">
        <ele>555</ele>
        <time>2022-04-15T21:15:10Z</time>
      </trkpt>
      <trkpt lat="45.95008" lon="4.60044">
        <ele>556</ele>
        <time>2022-04-15T21:17:04Z</time>
      </trkpt>
      <trkpt lat="45.95005" lon="4.60077">
        <ele>556</ele>
        <time>2022-04-15T21:17:35Z</time>
      </trkpt>
      <trkpt lat="45.94999" lon="4.6011">
        <ele>557</ele>
        <time>2022-04-15T21:18:07Z</time>
      </trkpt>
      <trkpt lat="45.94995" lon="4.60136">
        <ele>559</ele>
        <time>2022-04-15T21:18:32Z</time>
      </trkpt>
      <trkpt lat="45.95003" lon="4.60146">
        <ele>561</ele>
        <time>2022-04-15T21:18:46Z</time>
      </trkpt>
      <trkpt lat="45.95008" lon="4.60162">
        <ele>563</ele>
        <time>2022-04-15T21:19:02Z</time>
      </trkpt>
      <trkpt lat="45.95017" lon="4.60221">
        <ele>570</ele>
        <time>2022-04-15T21:19:58Z</time>
      </trkpt>
      <trkpt lat="45.95029" lon="4.60264">
        <ele>573</ele>
        <time>2022-04-15T21:20:41Z</time>
      </trkpt>
      <trkpt lat="45.95013" lon="4.60273">
        <ele>572</ele>
        <time>2022-04-15T21:21:04Z</time>
      </trkpt>
      <trkpt lat="45.95004" lon="4.60273">
        <ele>572</ele>
        <time>2022-04-15T21:21:16Z</time>
      </trkpt>
      <trkpt lat="45.95003" lon="4.60282">
        <ele>572</ele>
        <time>2022-04-15T21:21:24Z</time>
      </trkpt>
      <trkpt lat="45.94983" lon="4.60315">
        <ele>570</ele>
        <time>2022-04-15T21:22:05Z</time>
      </trkpt>
      <trkpt lat="45.94911" lon="4.60419">
        <ele>573</ele>
        <time>2022-04-15T21:24:21Z</time>
      </trkpt>
      <trkpt lat="45.94899" lon="4.6044">
        <ele>570</ele>
        <time>2022-04-15T21:24:46Z</time>
      </trkpt>
      <trkpt lat="45.94863" lon="4.60495">
        <ele>568</ele>
        <time>2022-04-15T21:25:57Z</time>
      </trkpt>
      <trkpt lat="45.9483" lon="4.60551">
        <ele>572</ele>
        <time>2022-04-15T21:27:05Z</time>
      </trkpt>
      <trkpt lat="45.94819" lon="4.6058">
        <ele>572</ele>
        <time>2022-04-15T21:27:35Z</time>
      </trkpt>
      <trkpt lat="45.94813" lon="4.60623">
        <ele>573</ele>
        <time>2022-04-15T21:28:16Z</time>
      </trkpt>
      <trkpt lat="45.94809" lon="4.60642">
        <ele>573</ele>
        <time>2022-04-15T21:28:34Z</time>
      </trkpt>
      <trkpt lat="45.94818" lon="4.60673">
        <ele>576</ele>
        <time>2022-04-15T21:29:06Z</time>
      </trkpt>
      <trkpt lat="45.94842" lon="4.6074">
        <ele>580</ele>
        <time>2022-04-15T21:30:16Z</time>
      </trkpt>
      <trkpt lat="45.94876" lon="4.6088">
        <ele>575</ele>
        <time>2022-04-15T21:32:33Z</time>
      </trkpt>
      <trkpt lat="45.94875" lon="4.60927">
        <ele>573</ele>
        <time>2022-04-15T21:33:17Z</time>
      </trkpt>
      <trkpt lat="45.94864" lon="4.60958">
        <ele>571</ele>
        <time>2022-04-15T21:33:49Z</time>
      </trkpt>
      <trkpt lat="45.94843" lon="4.61011">
        <ele>568</ele>
        <time>2022-04-15T21:34:46Z</time>
      </trkpt>
      <trkpt lat="45.94829" lon="4.61038">
        <ele>566</ele>
        <time>2022-04-15T21:35:17Z</time>
      </trkpt>
      <trkpt lat="45.94798" lon="4.61146">
        <ele>558</ele>
        <time>2022-04-15T21:37:05Z</time>
      </trkpt>
      <trkpt lat="45.94776" lon="4.61195">
        <ele>555</ele>
        <time>2022-04-15T21:37:59Z</time>
      </trkpt>
      <trkpt lat="45.94754" lon="4.61241">
        <ele>552</ele>
        <time>2022-04-15T21:38:51Z</time>
      </trkpt>
      <trkpt lat="45.94739" lon="4.61307">
        <ele>542</ele>
        <time>2022-04-15T21:39:56Z</time>
      </trkpt>
      <trkpt lat="45.9473" lon="4.61313">
        <ele>542</ele>
        <time>2022-04-15T21:40:09Z</time>
      </trkpt>
      <trkpt lat="45.94722" lon="4.61318">
        <ele>541</ele>
        <time>2022-04-15T21:40:21Z</time>
      </trkpt>
      <trkpt lat="45.94664" lon="4.6133">
        <ele>543</ele>
        <time>2022-04-15T21:41:39Z</time>
      </trkpt>
      <trkpt lat="45.94606" lon="4.61373">
        <ele>541</ele>
        <time>2022-04-15T21:43:06Z</time>
      </trkpt>
      <trkpt lat="45.94573" lon="4.61388">
        <ele>539</ele>
        <time>2022-04-15T21:43:52Z</time>
      </trkpt>
      <trkpt lat="45.94551" lon="4.61403">
        <ele>538</ele>
        <time>2022-04-15T21:44:24Z</time>
      </trkpt>
      <trkpt lat="45.94532" lon="4.61419">
        <ele>536</ele>
        <time>2022-04-15T21:44:54Z</time>
      </trkpt>
      <trkpt lat="45.94423" lon="4.6146">
        <ele>532</ele>
        <time>2022-04-15T21:47:24Z</time>
      </trkpt>
      <trkpt lat="45.94409" lon="4.61467">
        <ele>531</ele>
        <time>2022-04-15T21:47:44Z</time>
      </trkpt>
      <trkpt lat="45.94374" lon="4.61475">
        <ele>530</ele>
        <time>2022-04-15T21:48:31Z</time>
      </trkpt>
      <trkpt lat="45.94306" lon="4.6147">
        <ele>529</ele>
        <time>2022-04-15T21:50:02Z</time>
      </trkpt>
      <trkpt lat="45.94282" lon="4.61473">
        <ele>526</ele>
        <time>2022-04-15T21:50:34Z</time>
      </trkpt>
      <trkpt lat="45.94274" lon="4.61475">
        <ele>525</ele>
        <time>2022-04-15T21:50:45Z</time>
      </trkpt>
      <trkpt lat="45.94258" lon="4.61488">
        <ele>523</ele>
        <time>2022-04-15T21:51:10Z</time>
      </trkpt>
      <trkpt lat="45.94243" lon="4.61495">
        <ele>520</ele>
        <time>2022-04-15T21:51:31Z</time>
      </trkpt>
      <trkpt lat="45.94239" lon="4.61493">
        <ele>519</ele>
        <time>2022-04-15T21:51:36Z</time>
      </trkpt>
      <trkpt lat="45.94233" lon="4.61495">
        <ele>517</ele>
        <time>2022-04-15T21:51:45Z</time>
      </trkpt>
      <trkpt lat="45.94227" lon="4.61492">
        <ele>516</ele>
        <time>2022-04-15T21:51:53Z</time>
      </trkpt>
      <trkpt lat="45.94219" lon="4.61491">
        <ele>513</ele>
        <time>2022-04-15T21:52:04Z</time>
      </trkpt>
      <trkpt lat="45.94218" lon="4.61495">
        <ele>513</ele>
        <time>2022-04-15T21:52:08Z</time>
      </trkpt>
      <trkpt lat="45.94212" lon="4.61517">
        <ele>509</ele>
        <time>2022-04-15T21:52:30Z</time>
      </trkpt>
      <trkpt lat="45.94208" lon="4.61542">
        <ele>505</ele>
        <time>2022-04-15T21:52:53Z</time>
      </trkpt>
      <trkpt lat="45.94202" lon="4.6157">
        <ele>500</ele>
        <time>2022-04-15T21:53:21Z</time>
      </trkpt>
      <trkpt lat="45.94199" lon="4.61587">
        <ele>498</ele>
        <time>2022-04-15T21:53:37Z</time>
      </trkpt>
      <trkpt lat="45.94199" lon="4.61594">
        <ele>497</ele>
        <time>2022-04-15T21:53:43Z</time>
      </trkpt>
      <trkpt lat="45.94187" lon="4.61605">
        <ele>493</ele>
        <time>2022-04-15T21:54:02Z</time>
      </trkpt>
      <trkpt lat="45.94157" lon="4.61624">
        <ele>486</ele>
        <time>2022-04-15T21:54:46Z</time>
      </trkpt>
      <trkpt lat="45.94135" lon="4.61621">
        <ele>482</ele>
        <time>2022-04-15T21:55:16Z</time>
      </trkpt>
      <trkpt lat="45.94127" lon="4.61622">
        <ele>480</ele>
        <time>2022-04-15T21:55:26Z</time>
      </trkpt>
      <trkpt lat="45.94098" lon="4.61632">
        <ele>475</ele>
        <time>2022-04-15T21:56:06Z</time>
      </trkpt>
      <trkpt lat="45.94069" lon="4.61652">
        <ele>471</ele>
        <time>2022-04-15T21:56:49Z</time>
      </trkpt>
      <trkpt lat="45.94042" lon="4.61655">
        <ele>468</ele>
        <time>2022-04-15T21:57:25Z</time>
      </trkpt>
      <trkpt lat="45.94029" lon="4.61664">
        <ele>467</ele>
        <time>2022-04-15T21:57:44Z</time>
      </trkpt>
      <trkpt lat="45.94018" lon="4.61688">
        <ele>465</ele>
        <time>2022-04-15T21:58:11Z</time>
      </trkpt>
      <trkpt lat="45.94033" lon="4.61691">
        <ele>466</ele>
        <time>2022-04-15T21:58:31Z</time>
      </trkpt>
      <trkpt lat="45.94018" lon="4.61688">
        <ele>465</ele>
        <time>2022-04-15T21:58:52Z</time>
      </trkpt>
      <trkpt lat="45.94015" lon="4.61699">
        <ele>464</ele>
        <time>2022-04-15T21:59:03Z</time>
      </trkpt>
      <trkpt lat="45.94013" lon="4.61711">
        <ele>463</ele>
        <time>2022-04-15T21:59:14Z</time>
      </trkpt>
      <trkpt lat="45.94038" lon="4.61744">
        <ele>464</ele>
        <time>2022-04-15T21:59:59Z</time>
      </trkpt>
      <trkpt lat="45.94048" lon="4.61764">
        <ele>462</ele>
        <time>2022-04-15T22:00:22Z</time>
      </trkpt>
      <trkpt lat="45.94065" lon="4.61782">
        <ele>461</ele>
        <time>2022-04-15T22:00:50Z</time>
      </trkpt>
      <trkpt lat="45.94083" lon="4.61797">
        <ele>461</ele>
        <time>2022-04-15T22:01:18Z</time>
      </trkpt>
      <trkpt lat="45.94098" lon="4.61805">
        <ele>459</ele>
        <time>2022-04-15T22:01:39Z</time>
      </trkpt>
      <trkpt lat="45.94099" lon="4.61811">
        <ele>458</ele>
        <time>2022-04-15T22:01:45Z</time>
      </trkpt>
      <trkpt lat="45.94112" lon="4.61825">
        <ele>456</ele>
        <time>2022-04-15T22:02:07Z</time>
      </trkpt>
      <trkpt lat="45.94144" lon="4.61847">
        <ele>451</ele>
        <time>2022-04-15T22:02:54Z</time>
      </trkpt>
      <trkpt lat="45.94185" lon="4.61858">
        <ele>449</ele>
        <time>2022-04-15T22:03:50Z</time>
      </trkpt>
      <trkpt lat="45.9421" lon="4.61875">
        <ele>448</ele>
        <time>2022-04-15T22:04:27Z</time>
      </trkpt>
      <trkpt lat="45.9422" lon="4.61937">
        <ele>439</ele>
        <time>2022-04-15T22:05:26Z</time>
      </trkpt>
      <trkpt lat="45.94277" lon="4.62004">
        <ele>432</ele>
        <time>2022-04-15T22:07:04Z</time>
      </trkpt>
      <trkpt lat="45.9431" lon="4.62031">
        <ele>428</ele>
        <time>2022-04-15T22:07:55Z</time>
      </trkpt>
      <trkpt lat="45.94349" lon="4.62073">
        <ele>420</ele>
        <time>2022-04-15T22:09:00Z</time>
      </trkpt>
      <trkpt lat="45.94372" lon="4.62081">
        <ele>418</ele>
        <time>2022-04-15T22:09:31Z</time>
      </trkpt>
      <trkpt lat="45.94402" lon="4.62086">
        <ele>415</ele>
        <time>2022-04-15T22:10:12Z</time>
      </trkpt>
      <trkpt lat="45.9442" lon="4.62092">
        <ele>414</ele>
        <time>2022-04-15T22:10:36Z</time>
      </trkpt>
      <trkpt lat="45.9443" lon="4.62099">
        <ele>413</ele>
        <time>2022-04-15T22:10:51Z</time>
      </trkpt>
      <trkpt lat="45.94435" lon="4.62104">
        <ele>412</ele>
        <time>2022-04-15T22:10:59Z</time>
      </trkpt>
      <trkpt lat="45.94459" lon="4.62157">
        <ele>405</ele>
        <time>2022-04-15T22:11:58Z</time>
      </trkpt>
      <trkpt lat="45.94468" lon="4.62151">
        <ele>406</ele>
        <time>2022-04-15T22:12:11Z</time>
      </trkpt>
      <trkpt lat="45.94473" lon="4.62147">
        <ele>406</ele>
        <time>2022-04-15T22:12:19Z</time>
      </trkpt>
      <trkpt lat="45.94468" lon="4.62151">
        <ele>406</ele>
        <time>2022-04-15T22:12:26Z</time>
      </trkpt>
      <trkpt lat="45.94459" lon="4.62157">
        <ele>405</ele>
        <time>2022-04-15T22:12:40Z</time>
      </trkpt>
      <trkpt lat="45.94431" lon="4.62166">
        <ele>406</ele>
        <time>2022-04-15T22:13:18Z</time>
      </trkpt>
      <trkpt lat="45.94337" lon="4.6218">
        <ele>406</ele>
        <time>2022-04-15T22:15:24Z</time>
      </trkpt>
      <trkpt lat="45.94362" lon="4.62197">
        <ele>404</ele>
        <time>2022-04-15T22:16:01Z</time>
      </trkpt>
      <trkpt lat="45.94419" lon="4.62239">
        <ele>402</ele>
        <time>2022-04-15T22:17:26Z</time>
      </trkpt>
      <trkpt lat="45.94454" lon="4.62255">
        <ele>401</ele>
        <time>2022-04-15T22:18:15Z</time>
      </trkpt>
      <trkpt lat="45.94462" lon="4.62266">
        <ele>401</ele>
        <time>2022-04-15T22:18:30Z</time>
      </trkpt>
      <trkpt lat="45.94464" lon="4.62271">
        <ele>400</ele>
        <time>2022-04-15T22:18:36Z</time>
      </trkpt>
      <trkpt lat="45.94499" lon="4.62256">
        <ele>401</ele>
        <time>2022-04-15T22:19:24Z</time>
      </trkpt>
      <trkpt lat="45.94521" lon="4.62289">
        <ele>397</ele>
        <time>2022-04-15T22:20:07Z</time>
      </trkpt>
      <trkpt lat="45.94543" lon="4.62331">
        <ele>395</ele>
        <time>2022-04-15T22:20:55Z</time>
      </trkpt>
      <trkpt lat="45.94608" lon="4.62447">
        <ele>391</ele>
        <time>2022-04-15T22:23:14Z</time>
      </trkpt>
      <trkpt lat="45.94637" lon="4.62486">
        <ele>389</ele>
        <time>2022-04-15T22:24:07Z</time>
      </trkpt>
      <trkpt lat="45.94685" lon="4.62531">
        <ele>387</ele>
        <time>2022-04-15T22:25:23Z</time>
      </trkpt>
      <trkpt lat="45.94718" lon="4.62585">
        <ele>388</ele>
        <time>2022-04-15T22:26:30Z</time>
      </trkpt>
      <trkpt lat="45.94814" lon="4.62718">
        <ele>393</ele>
        <time>2022-04-15T22:29:28Z</time>
      </trkpt>
      <trkpt lat="45.94826" lon="4.6274">
        <ele>395</ele>
        <time>2022-04-15T22:29:54Z</time>
      </trkpt>
      <trkpt lat="45.94822" lon="4.62752">
        <ele>396</ele>
        <time>2022-04-15T22:30:06Z</time>
      </trkpt>
      <trkpt lat="45.94818" lon="4.62797">
        <ele>395</ele>
        <time>2022-04-15T22:30:48Z</time>
      </trkpt>
      <trkpt lat="45.94815" lon="4.62893">
        <ele>388</ele>
        <time>2022-04-15T22:32:17Z</time>
      </trkpt>
      <trkpt lat="45.94816" lon="4.62941">
        <ele>384</ele>
        <time>2022-04-15T22:33:02Z</time>
      </trkpt>
      <trkpt lat="45.94814" lon="4.62976">
        <ele>381</ele>
        <time>2022-04-15T22:33:34Z</time>
      </trkpt>
      <trkpt lat="45.94816" lon="4.63">
        <ele>380</ele>
        <time>2022-04-15T22:33:57Z</time>
      </trkpt>
      <trkpt lat="45.94864" lon="4.62986">
        <ele>381</ele>
        <time>2022-04-15T22:35:02Z</time>
      </trkpt>
      <trkpt lat="45.94855" lon="4.63036">
        <ele>376</ele>
        <time>2022-04-15T22:35:50Z</time>
      </trkpt>
      <trkpt lat="45.94856" lon="4.63042">
        <ele>375</ele>
        <time>2022-04-15T22:35:56Z</time>
      </trkpt>
      <trkpt lat="45.94859" lon="4.63045">
        <ele>375</ele>
        <time>2022-04-15T22:36:01Z</time>
      </trkpt>
      <trkpt lat="45.94879" lon="4.6305">
        <ele>374</ele>
        <time>2022-04-15T22:36:28Z</time>
      </trkpt>
      <trkpt lat="45.94883" lon="4.63056">
        <ele>373</ele>
        <time>2022-04-15T22:36:36Z</time>
      </trkpt>
      <trkpt lat="45.94884" lon="4.631">
        <ele>366</ele>
        <time>2022-04-15T22:37:16Z</time>
      </trkpt>
      <trkpt lat="45.94882" lon="4.63238">
        <ele>345</ele>
        <time>2022-04-15T22:39:24Z</time>
      </trkpt>
      <trkpt lat="45.94877" lon="4.63242">
        <ele>345</ele>
        <time>2022-04-15T22:39:32Z</time>
      </trkpt>
      <trkpt lat="45.94882" lon="4.63238">
        <ele>345</ele>
        <time>2022-04-15T22:39:40Z</time>
      </trkpt>
      <trkpt lat="45.94887" lon="4.63244">
        <ele>345</ele>
        <time>2022-04-15T22:39:48Z</time>
      </trkpt>
      <trkpt lat="45.95025" lon="4.63255">
        <ele>348</ele>
        <time>2022-04-15T22:42:53Z</time>
      </trkpt>
      <trkpt lat="45.95021" lon="4.63293">
        <ele>344</ele>
        <time>2022-04-15T22:43:29Z</time>
      </trkpt>
      <trkpt lat="45.95017" lon="4.63311">
        <ele>342</ele>
        <time>2022-04-15T22:43:46Z</time>
      </trkpt>
      <trkpt lat="45.95009" lon="4.63329">
        <ele>340</ele>
        <time>2022-04-15T22:44:06Z</time>
      </trkpt>
      <trkpt lat="45.94994" lon="4.63352">
        <ele>338</ele>
        <time>2022-04-15T22:44:35Z</time>
      </trkpt>
      <trkpt lat="45.94986" lon="4.63374">
        <ele>337</ele>
        <time>2022-04-15T22:44:58Z</time>
      </trkpt>
      <trkpt lat="45.94982" lon="4.63395">
        <ele>335</ele>
        <time>2022-04-15T22:45:18Z</time>
      </trkpt>
      <trkpt lat="45.94976" lon="4.63472">
        <ele>329</ele>
        <time>2022-04-15T22:46:30Z</time>
      </trkpt>
      <trkpt lat="45.94971" lon="4.63505">
        <ele>326</ele>
        <time>2022-04-15T22:47:02Z</time>
      </trkpt>
      <trkpt lat="45.94973" lon="4.63511">
        <ele>326</ele>
        <time>2022-04-15T22:47:08Z</time>
      </trkpt>
      <trkpt lat="45.94976" lon="4.63609">
        <ele>317</ele>
        <time>2022-04-15T22:48:39Z</time>
      </trkpt>
      <trkpt lat="45.94979" lon="4.63657">
        <ele>314</ele>
        <time>2022-04-15T22:49:23Z</time>
      </trkpt>
      <trkpt lat="45.94981" lon="4.63727">
        <ele>309</ele>
        <time>2022-04-15T22:50:28Z</time>
      </trkpt>
      <trkpt lat="45.94979" lon="4.63757">
        <ele>307</ele>
        <time>2022-04-15T22:50:56Z</time>
      </trkpt>
      <trkpt lat="45.94982" lon="4.63774">
        <ele>306</ele>
        <time>2022-04-15T22:51:13Z</time>
      </trkpt>
      <trkpt lat="45.94985" lon="4.63964">
        <ele>300</ele>
        <time>2022-04-15T22:54:09Z</time>
      </trkpt>
      <trkpt lat="45.94986" lon="4.64075">
        <ele>299</ele>
        <time>2022-04-15T22:55:52Z</time>
      </trkpt>
      <trkpt lat="45.94986" lon="4.64154">
        <ele>298</ele>
        <time>2022-04-15T22:57:05Z</time>
      </trkpt>
      <trkpt lat="45.94989" lon="4.64264">
        <ele>293</ele>
        <time>2022-04-15T22:58:48Z</time>
      </trkpt>
      <trkpt lat="45.94991" lon="4.64273">
        <ele>293</ele>
        <time>2022-04-15T22:58:56Z</time>
      </trkpt>
      <trkpt lat="45.9499" lon="4.64296">
        <ele>292</ele>
        <time>2022-04-15T22:59:18Z</time>
      </trkpt>
      <trkpt lat="45.94992" lon="4.64358">
        <ele>290</ele>
        <time>2022-04-15T23:00:15Z</time>
      </trkpt>
      <trkpt lat="45.94986" lon="4.64396">
        <ele>289</ele>
        <time>2022-04-15T23:00:51Z</time>
      </trkpt>
      <trkpt lat="45.94981" lon="4.64465">
        <ele>287</ele>
        <time>2022-04-15T23:01:56Z</time>
      </trkpt>
      <trkpt lat="45.94984" lon="4.64521">
        <ele>286</ele>
        <time>2022-04-15T23:02:48Z</time>
      </trkpt>
      <trkpt lat="45.94989" lon="4.64572">
        <ele>285</ele>
        <time>2022-04-15T23:03:36Z</time>
      </trkpt>
      <trkpt lat="45.94987" lon="4.64585">
        <ele>285</ele>
        <time>2022-04-15T23:03:48Z</time>
      </trkpt>
      <trkpt lat="45.94989" lon="4.6459">
        <ele>285</ele>
        <time>2022-04-15T23:03:53Z</time>
      </trkpt>
      <trkpt lat="45.94987" lon="4.64585">
        <ele>285</ele>
        <time>2022-04-15T23:03:59Z</time>
      </trkpt>
      <trkpt lat="45.94982" lon="4.64593">
        <ele>284</ele>
        <time>2022-04-15T23:04:09Z</time>
      </trkpt>
      <trkpt lat="45.94973" lon="4.64597">
        <ele>283</ele>
        <time>2022-04-15T23:04:21Z</time>
      </trkpt>
      <trkpt lat="45.94938" lon="4.64598">
        <ele>281</ele>
        <time>2022-04-15T23:05:08Z</time>
      </trkpt>
      <trkpt lat="45.94931" lon="4.64607">
        <ele>280</ele>
        <time>2022-04-15T23:05:21Z</time>
      </trkpt>
      <trkpt lat="45.94926" lon="4.64628">
        <ele>279</ele>
        <time>2022-04-15T23:05:41Z</time>
      </trkpt>
      <trkpt lat="45.94926" lon="4.64691">
        <ele>277</ele>
        <time>2022-04-15T23:06:40Z</time>
      </trkpt>
      <trkpt lat="45.94946" lon="4.64838">
        <ele>276</ele>
        <time>2022-04-15T23:08:59Z</time>
      </trkpt>
      <trkpt lat="45.94955" lon="4.64888">
        <ele>275</ele>
        <time>2022-04-15T23:09:46Z</time>
      </trkpt>
      <trkpt lat="45.94979" lon="4.64883">
        <ele>277</ele>
        <time>2022-04-15T23:10:19Z</time>
      </trkpt>
      <trkpt lat="45.95052" lon="4.64854">
        <ele>279</ele>
        <time>2022-04-15T23:12:00Z</time>
      </trkpt>
      <trkpt lat="45.95087" lon="4.64832">
        <ele>279</ele>
        <time>2022-04-15T23:12:51Z</time>
      </trkpt>
      <trkpt lat="45.95134" lon="4.64787">
        <ele>276</ele>
        <time>2022-04-15T23:14:06Z</time>
      </trkpt>
      <trkpt lat="45.95169" lon="4.64759">
        <ele>276</ele>
        <time>2022-04-15T23:15:00Z</time>
      </trkpt>
      <trkpt lat="45.95195" lon="4.64754">
        <ele>278</ele>
        <time>2022-04-15T23:15:35Z</time>
      </trkpt>
      <trkpt lat="45.95233" lon="4.64753">
        <ele>281</ele>
        <time>2022-04-15T23:16:25Z</time>
      </trkpt>
      <trkpt lat="45.95286" lon="4.6476">
        <ele>285</ele>
        <time>2022-04-15T23:17:36Z</time>
      </trkpt>
      <trkpt lat="45.95306" lon="4.64753">
        <ele>287</ele>
        <time>2022-04-15T23:18:04Z</time>
      </trkpt>
      <trkpt lat="45.95325" lon="4.64754">
        <ele>288</ele>
        <time>2022-04-15T23:18:29Z</time>
      </trkpt>
      <trkpt lat="45.95374" lon="4.64775">
        <ele>294</ele>
        <time>2022-04-15T23:19:37Z</time>
      </trkpt>
      <trkpt lat="45.95405" lon="4.64795">
        <ele>298</ele>
        <time>2022-04-15T23:20:23Z</time>
      </trkpt>
      <trkpt lat="45.95429" lon="4.64802">
        <ele>300</ele>
        <time>2022-04-15T23:20:55Z</time>
      </trkpt>
      <trkpt lat="45.95453" lon="4.64803">
        <ele>302</ele>
        <time>2022-04-15T23:21:28Z</time>
      </trkpt>
      <trkpt lat="45.9549" lon="4.64811">
        <ele>305</ele>
        <time>2022-04-15T23:22:17Z</time>
      </trkpt>
      <trkpt lat="45.95507" lon="4.64793">
        <ele>306</ele>
        <time>2022-04-15T23:22:46Z</time>
      </trkpt>
      <trkpt lat="45.95524" lon="4.64779">
        <ele>305</ele>
        <time>2022-04-15T23:23:12Z</time>
      </trkpt>
      <trkpt lat="45.95557" lon="4.64773">
        <ele>304</ele>
        <time>2022-04-15T23:23:56Z</time>
      </trkpt>
      <trkpt lat="45.95595" lon="4.64758">
        <ele>301</ele>
        <time>2022-04-15T23:24:49Z</time>
      </trkpt>
      <trkpt lat="45.95682" lon="4.64761">
        <ele>289</ele>
        <time>2022-04-15T23:26:45Z</time>
      </trkpt>
      <trkpt lat="45.95703" lon="4.64748">
        <ele>286</ele>
        <time>2022-04-15T23:27:15Z</time>
      </trkpt>
      <trkpt lat="45.95726" lon="4.64719">
        <ele>283</ele>
        <time>2022-04-15T23:27:56Z</time>
      </trkpt>
      <trkpt lat="45.95752" lon="4.64686">
        <ele>279</ele>
        <time>2022-04-15T23:28:42Z</time>
      </trkpt>
      <trkpt lat="45.95769" lon="4.64667">
        <ele>277</ele>
        <time>2022-04-15T23:29:11Z</time>
      </trkpt>
      <trkpt lat="45.9578" lon="4.64658">
        <ele>275</ele>
        <time>2022-04-15T23:29:28Z</time>
      </trkpt>
      <trkpt lat="45.95809" lon="4.64643">
        <ele>269</ele>
        <time>2022-04-15T23:30:09Z</time>
      </trkpt>
      <trkpt lat="45.95819" lon="4.64654">
        <ele>267</ele>
        <time>2022-04-15T23:30:26Z</time>
      </trkpt>
      <trkpt lat="45.95835" lon="4.64664">
        <ele>265</ele>
        <time>2022-04-15T23:30:49Z</time>
      </trkpt>
      <trkpt lat="45.95874" lon="4.64667">
        <ele>261</ele>
        <time>2022-04-15T23:31:41Z</time>
      </trkpt>
      <trkpt lat="45.9589" lon="4.64687">
        <ele>259</ele>
        <time>2022-04-15T23:32:10Z</time>
      </trkpt>
      <trkpt lat="45.95912" lon="4.64743">
        <ele>257</ele>
        <time>2022-04-15T23:33:09Z</time>
      </trkpt>
      <trkpt lat="45.95943" lon="4.64735">
        <ele>255</ele>
        <time>2022-04-15T23:33:51Z</time>
      </trkpt>
      <trkpt lat="45.95955" lon="4.64756">
        <ele>255</ele>
        <time>2022-04-15T23:34:17Z</time>
      </trkpt>
      <trkpt lat="45.95986" lon="4.64755">
        <ele>253</ele>
        <time>2022-04-15T23:34:58Z</time>
      </trkpt>
      <trkpt lat="45.95999" lon="4.64763">
        <ele>252</ele>
        <time>2022-04-15T23:35:17Z</time>
      </trkpt>
      <trkpt lat="45.96035" lon="4.6476">
        <ele>254</ele>
        <time>2022-04-15T23:36:05Z</time>
      </trkpt>
      <trkpt lat="45.96045" lon="4.64809">
        <ele>253</ele>
        <time>2022-04-15T23:36:52Z</time>
      </trkpt>
      <trkpt lat="45.96045" lon="4.64829">
        <ele>253</ele>
        <time>2022-04-15T23:37:11Z</time>
      </trkpt>
      <trkpt lat="45.96088" lon="4.64844">
        <ele>254</ele>
        <time>2022-04-15T23:38:10Z</time>
      </trkpt>
      <trkpt lat="45.96113" lon="4.64861">
        <ele>258</ele>
        <time>2022-04-15T23:38:47Z</time>
      </trkpt>
      <trkpt lat="45.9613" lon="4.64888">
        <ele>259</ele>
        <time>2022-04-15T23:39:21Z</time>
      </trkpt>
      <trkpt lat="45.96145" lon="4.64903">
        <ele>261</ele>
        <time>2022-04-15T23:39:45Z</time>
      </trkpt>
      <trkpt lat="45.96169" lon="4.64915">
        <ele>264</ele>
        <time>2022-04-15T23:40:19Z</time>
      </trkpt>
      <trkpt lat="45.96212" lon="4.64943">
        <ele>271</ele>
        <time>2022-04-15T23:41:22Z</time>
      </trkpt>
      <trkpt lat="45.9622" lon="4.64976">
        <ele>271</ele>
        <time>2022-04-15T23:41:54Z</time>
      </trkpt>
      <trkpt lat="45.96223" lon="4.64962">
        <ele>272</ele>
        <time>2022-04-15T23:42:08Z</time>
      </trkpt>
      <trkpt lat="45.9622" lon="4.64928">
        <ele>273</ele>
        <time>2022-04-15T23:42:40Z</time>
      </trkpt>
      <trkpt lat="45.96207" lon="4.64872">
        <ele>273</ele>
        <time>2022-04-15T23:43:34Z</time>
      </trkpt>
      <trkpt lat="45.96173" lon="4.64784">
        <ele>271</ele>
        <time>2022-04-15T23:45:08Z</time>
      </trkpt>
      <trkpt lat="45.96168" lon="4.64744">
        <ele>272</ele>
        <time>2022-04-15T23:45:46Z</time>
      </trkpt>
      <trkpt lat="45.96167" lon="4.64719">
        <ele>273</ele>
        <time>2022-04-15T23:46:09Z</time>
      </trkpt>
      <trkpt lat="45.96168" lon="4.64695">
        <ele>274</ele>
        <time>2022-04-15T23:46:31Z</time>
      </trkpt>
      <trkpt lat="45.96176" lon="4.64643">
        <ele>277</ele>
        <time>2022-04-15T23:47:21Z</time>
      </trkpt>
      <trkpt lat="45.96185" lon="4.64573">
        <ele>280</ele>
        <time>2022-04-15T23:48:27Z</time>
      </trkpt>
      <trkpt lat="45.96186" lon="4.64502">
        <ele>280</ele>
        <time>2022-04-15T23:49:32Z</time>
      </trkpt>
      <trkpt lat="45.96189" lon="4.64458">
        <ele>280</ele>
        <time>2022-04-15T23:50:13Z</time>
      </trkpt>
      <trkpt lat="45.96196" lon="4.6442">
        <ele>280</ele>
        <time>2022-04-15T23:50:50Z</time>
      </trkpt>
      <trkpt lat="45.96208" lon="4.64375">
        <ele>281</ele>
        <time>2022-04-15T23:51:35Z</time>
      </trkpt>
      <trkpt lat="45.96282" lon="4.64169">
        <ele>287</ele>
        <time>2022-04-15T23:55:10Z</time>
      </trkpt>
      <trkpt lat="45.96288" lon="4.64149">
        <ele>288</ele>
        <time>2022-04-15T23:55:30Z</time>
      </trkpt>
      <trkpt lat="45.96297" lon="4.64072">
        <ele>287</ele>
        <time>2022-04-15T23:56:42Z</time>
      </trkpt>
      <trkpt lat="45.96298" lon="4.64047">
        <ele>288</ele>
        <time>2022-04-15T23:57:06Z</time>
      </trkpt>
      <trkpt lat="45.96301" lon="4.64021">
        <ele>289</ele>
        <time>2022-04-15T23:57:30Z</time>
      </trkpt>
      <trkpt lat="45.96306" lon="4.63991">
        <ele>290</ele>
        <time>2022-04-15T23:57:59Z</time>
      </trkpt>
      <trkpt lat="45.96326" lon="4.63909">
        <ele>293</ele>
        <time>2022-04-15T23:59:19Z</time>
      </trkpt>
      <trkpt lat="45.9634" lon="4.63859">
        <ele>295</ele>
        <time>2022-04-16T00:00:09Z</time>
      </trkpt>
      <trkpt lat="45.96373" lon="4.63623">
        <ele>301</ele>
        <time>2022-04-16T00:03:53Z</time>
      </trkpt>
      <trkpt lat="45.96403" lon="4.63468">
        <ele>304</ele>
        <time>2022-04-16T00:06:22Z</time>
      </trkpt>
      <trkpt lat="45.96426" lon="4.63375">
        <ele>305</ele>
        <time>2022-04-16T00:07:53Z</time>
      </trkpt>
      <trkpt lat="45.96452" lon="4.63314">
        <ele>308</ele>
        <time>2022-04-16T00:09:00Z</time>
      </trkpt>
      <trkpt lat="45.9645" lon="4.63259">
        <ele>305</ele>
        <time>2022-04-16T00:09:51Z</time>
      </trkpt>
      <trkpt lat="45.96444" lon="4.63229">
        <ele>303</ele>
        <time>2022-04-16T00:10:20Z</time>
      </trkpt>
      <trkpt lat="45.96429" lon="4.6318">
        <ele>297</ele>
        <time>2022-04-16T00:11:09Z</time>
      </trkpt>
      <trkpt lat="45.9641" lon="4.63088">
        <ele>293</ele>
        <time>2022-04-16T00:12:38Z</time>
      </trkpt>
      <trkpt lat="45.96403" lon="4.63064">
        <ele>294</ele>
        <time>2022-04-16T00:13:03Z</time>
      </trkpt>
      <trkpt lat="45.96394" lon="4.63054">
        <ele>294</ele>
        <time>2022-04-16T00:13:18Z</time>
      </trkpt>
      <trkpt lat="45.96394" lon="4.63041">
        <ele>294</ele>
        <time>2022-04-16T00:13:30Z</time>
      </trkpt>
    </trkseg>
  </trk>
</gpx>